createdAt,value
2018-08-11T00:01:35.179Z,95.60
2018-08-11T00:04:03.125Z,95.90
2018-08-11T00:06:31.376Z,95.90
2018-08-11T00:08:59.196Z,96.20
2018-08-11T00:11:27.267Z,96.60
2018-08-11T00:13:55.362Z,96.40
2018-08-11T00:16:23.354Z,96.60
2018-08-11T00:18:51.300Z,96.80
2018-08-11T00:21:19.193Z,96.60
2018-08-11T00:23:46.824Z,96.60
2018-08-11T00:26:14.767Z,96.30
2018-08-11T00:28:43.160Z,96.10
2018-08-11T00:31:11.427Z,96.30
2018-08-11T00:33:39.857Z,96.60
2018-08-11T00:36:07.750Z,96.80
2018-08-11T00:38:35.797Z,96.90
2018-08-11T00:41:03.745Z,96.80
2018-08-11T00:43:31.887Z,97.20
2018-08-11T00:46:00.473Z,96.90
2018-08-11T00:48:29.202Z,97.00
2018-08-11T00:50:57.245Z,96.70
2018-08-11T00:53:25.154Z,96.50
2018-08-11T00:55:53.140Z,96.30
2018-08-11T00:58:20.987Z,96.80
2018-08-11T01:00:49.173Z,96.40
2018-08-11T01:03:17.680Z,96.30
2018-08-11T01:05:45.869Z,96.30
2018-08-11T01:08:14.036Z,96.90
2018-08-11T01:10:42.153Z,97.00
2018-08-11T01:13:10.189Z,96.80
2018-08-11T01:15:38.123Z,96.80
2018-08-11T01:18:06.077Z,97.10
2018-08-11T01:20:34.380Z,97.10
2018-08-11T01:23:02.649Z,96.90
2018-08-11T01:25:30.415Z,96.70
2018-08-11T01:27:59.122Z,96.90
2018-08-11T01:30:27.220Z,96.90
2018-08-11T01:32:54.963Z,96.70
2018-08-11T01:35:23.024Z,96.50
2018-08-11T01:37:51.276Z,96.50
2018-08-11T01:40:19.667Z,96.90
2018-08-11T01:42:48.560Z,97.10
2018-08-11T01:45:16.961Z,96.90
2018-08-11T01:47:44.933Z,96.90
2018-08-11T01:50:14.239Z,97.10
2018-08-11T01:52:44.294Z,97.40
2018-08-11T01:55:14.511Z,97.00
2018-08-11T01:57:43.064Z,96.90
2018-08-11T02:00:12.647Z,97.10
2018-08-11T02:02:40.813Z,97.10
2018-08-11T02:05:09.770Z,97.30
2018-08-11T02:07:39.069Z,97.40
2018-08-11T02:10:08.927Z,97.60
2018-08-11T02:12:36.868Z,98.10
2018-08-11T02:15:07.045Z,98.60
2018-08-11T02:17:34.739Z,98.20
2018-08-11T02:20:02.955Z,98.30
2018-08-11T02:22:31.124Z,98.10
2018-08-11T02:24:59.425Z,98.30
2018-08-11T02:27:27.430Z,98.60
2018-08-11T02:29:55.040Z,98.90
2018-08-11T02:32:23.160Z,99.10
2018-08-11T02:34:51.393Z,98.80
2018-08-11T02:37:19.456Z,99.10
2018-08-11T02:39:47.362Z,99.50
2018-08-11T02:42:15.289Z,99.50
2018-08-11T02:44:43.226Z,99.60
2018-08-11T02:47:11.928Z,99.70
2018-08-11T02:49:40.496Z,99.80
2018-08-11T02:52:08.588Z,99.80
2018-08-11T02:54:36.752Z,99.90
2018-08-11T02:57:05.048Z,99.90
2018-08-11T02:59:32.739Z,99.90
2018-08-11T03:02:01.302Z,99.90
2018-08-11T03:04:29.935Z,99.90
2018-08-11T03:06:58.356Z,99.90
2018-08-11T03:09:26.321Z,99.90
2018-08-11T03:11:54.302Z,99.90
2018-08-11T03:14:22.399Z,99.90
2018-08-11T03:16:50.325Z,99.90
2018-08-11T03:19:18.427Z,99.90
2018-08-11T03:21:46.356Z,99.90
2018-08-11T03:24:14.239Z,99.90
2018-08-11T03:26:42.273Z,99.90
2018-08-11T03:29:10.470Z,99.90
2018-08-11T03:31:38.643Z,99.90
2018-08-11T03:34:06.435Z,99.90
2018-08-11T03:36:35.863Z,99.90
2018-08-11T03:39:05.842Z,99.90
2018-08-11T03:41:34.892Z,99.90
2018-08-11T03:44:02.989Z,99.90
2018-08-11T03:46:30.981Z,99.90
2018-08-11T03:48:58.707Z,99.90
2018-08-11T03:51:26.797Z,99.90
2018-08-11T03:53:54.571Z,99.90
2018-08-11T03:56:22.423Z,99.90
2018-08-11T03:58:50.615Z,99.90
2018-08-11T04:01:18.571Z,99.90
2018-08-11T04:03:46.528Z,99.90
2018-08-11T04:06:14.387Z,99.90
2018-08-11T04:08:42.456Z,99.90
2018-08-11T04:11:10.420Z,99.90
2018-08-11T04:13:38.416Z,99.90
2018-08-11T04:16:06.447Z,99.90
2018-08-11T04:18:34.263Z,99.90
2018-08-11T04:21:02.416Z,99.90
2018-08-11T04:23:30.417Z,99.90
2018-08-11T04:25:58.539Z,99.90
2018-08-11T04:28:27.412Z,99.90
2018-08-11T04:30:55.919Z,99.90
2018-08-11T04:33:24.343Z,99.90
2018-08-11T04:35:52.224Z,99.90
2018-08-11T04:38:20.051Z,99.90
2018-08-11T04:40:47.925Z,99.90
2018-08-11T04:43:15.914Z,99.90
2018-08-11T04:45:43.838Z,99.90
2018-08-11T04:48:11.618Z,99.90
2018-08-11T04:50:39.440Z,99.90
2018-08-11T04:53:07.622Z,99.90
2018-08-11T04:55:35.513Z,99.90
2018-08-11T04:58:03.577Z,99.90
2018-08-11T05:00:32.161Z,99.90
2018-08-11T05:03:00.700Z,99.90
2018-08-11T05:05:28.894Z,99.90
2018-08-11T05:07:57.303Z,99.90
2018-08-11T05:10:25.386Z,99.90
2018-08-11T05:12:53.654Z,99.70
2018-08-11T05:15:21.902Z,99.90
2018-08-11T05:17:50.356Z,99.80
2018-08-11T05:20:18.695Z,99.80
2018-08-11T05:22:46.540Z,99.90
2018-08-11T05:25:14.984Z,99.90
2018-08-11T05:27:42.963Z,99.60
2018-08-11T05:30:11.800Z,99.60
2018-08-11T05:32:40.079Z,99.60
2018-08-11T05:35:08.061Z,99.60
2018-08-11T05:37:36.163Z,99.70
2018-08-11T05:40:04.372Z,99.50
2018-08-11T05:42:32.405Z,99.70
2018-08-11T05:45:00.526Z,99.60
2018-08-11T05:47:28.488Z,99.20
2018-08-11T05:49:56.594Z,98.80
2018-08-11T05:52:24.432Z,98.50
2018-08-11T05:54:52.761Z,97.30
2018-08-11T05:57:20.878Z,96.30
2018-08-11T05:59:49.022Z,95.00
2018-08-11T06:02:17.187Z,94.20
2018-08-11T06:04:45.182Z,93.10
2018-08-11T06:07:13.284Z,92.90
2018-08-11T06:09:41.834Z,91.40
2018-08-11T06:12:09.992Z,90.70
2018-08-11T06:14:37.939Z,89.00
2018-08-11T06:17:06.055Z,88.00
2018-08-11T06:19:34.572Z,87.80
2018-08-11T06:22:02.746Z,87.40
2018-08-11T06:24:30.731Z,86.20
2018-08-11T06:26:59.367Z,84.10
2018-08-11T06:29:27.804Z,84.10
2018-08-11T06:31:55.945Z,83.10
2018-08-11T06:34:23.897Z,82.60
2018-08-11T06:36:51.741Z,81.10
2018-08-11T06:39:19.988Z,79.60
2018-08-11T06:41:48.292Z,76.60
2018-08-11T06:44:16.428Z,79.10
2018-08-11T06:46:44.697Z,77.70
2018-08-11T06:49:12.972Z,77.30
2018-08-11T06:51:41.322Z,76.80
2018-08-11T06:54:09.627Z,75.90
2018-08-11T06:56:38.088Z,76.10
2018-08-11T06:59:06.280Z,73.60
2018-08-11T07:01:36.120Z,72.00
2018-08-11T07:04:04.118Z,68.20
2018-08-11T07:06:33.277Z,64.80
2018-08-11T07:09:02.025Z,66.70
2018-08-11T07:11:30.546Z,59.50
2018-08-11T07:13:58.603Z,63.60
2018-08-11T07:16:26.437Z,59.30
2018-08-11T07:18:54.985Z,58.60
2018-08-11T07:21:23.089Z,59.30
2018-08-11T07:23:50.997Z,58.80
2018-08-11T07:26:20.095Z,59.10
2018-08-11T07:28:48.203Z,59.30
2018-08-11T07:31:16.878Z,59.60
2018-08-11T07:33:45.144Z,57.90
2018-08-11T07:36:13.392Z,58.40
2018-08-11T07:38:41.339Z,58.40
2018-08-11T07:41:09.336Z,59.90
2018-08-11T07:43:38.024Z,59.10
2018-08-11T07:46:06.706Z,60.00
2018-08-11T07:48:34.957Z,58.90
2018-08-11T07:51:03.133Z,59.90
2018-08-11T07:53:31.102Z,60.80
2018-08-11T07:55:59.420Z,60.70
2018-08-11T07:58:27.647Z,60.20
2018-08-11T08:00:56.202Z,59.70
2018-08-11T08:03:25.573Z,59.80
2018-08-11T08:05:54.982Z,59.20
2018-08-11T08:08:24.890Z,60.70
2018-08-11T08:10:53.843Z,60.60
2018-08-11T08:13:21.992Z,60.40
2018-08-11T08:15:50.071Z,59.90
2018-08-11T08:18:20.094Z,60.20
2018-08-11T08:20:48.178Z,61.20
2018-08-11T08:23:16.037Z,62.20
2018-08-11T08:25:44.609Z,63.00
2018-08-11T08:28:13.873Z,63.10
2018-08-11T08:30:42.833Z,63.70
2018-08-11T08:33:11.595Z,63.10
2018-08-11T08:35:40.045Z,63.90
2018-08-11T08:38:11.114Z,63.70
2018-08-11T08:40:39.756Z,64.60
2018-08-11T08:43:07.821Z,64.90
2018-08-11T08:45:35.971Z,65.00
2018-08-11T08:48:04.348Z,63.90
2018-08-11T08:50:32.460Z,64.60
2018-08-11T08:53:00.553Z,63.50
2018-08-11T08:55:28.684Z,63.70
2018-08-11T08:57:56.706Z,64.10
2018-08-11T09:00:25.691Z,62.80
2018-08-11T09:02:54.984Z,62.00
2018-08-11T09:05:23.182Z,62.20
2018-08-11T09:07:51.246Z,62.70
2018-08-11T09:10:19.546Z,64.10
2018-08-11T09:12:47.916Z,61.90
2018-08-11T09:15:16.033Z,61.80
2018-08-11T09:17:44.136Z,62.00
2018-08-11T09:20:12.006Z,62.70
2018-08-11T09:22:40.104Z,61.70
2018-08-11T09:25:08.146Z,63.00
2018-08-11T09:27:36.472Z,62.00
2018-08-11T09:30:05.375Z,62.20
2018-08-11T09:32:33.175Z,60.70
2018-08-11T09:35:00.998Z,60.10
2018-08-11T09:37:29.578Z,61.00
2018-08-11T09:39:57.979Z,63.00
2018-08-11T09:42:26.908Z,63.70
2018-08-11T09:44:55.010Z,62.40
2018-08-11T09:47:23.040Z,61.50
2018-08-11T09:49:50.963Z,61.80
2018-08-11T09:52:19.482Z,60.10
2018-08-11T09:54:47.415Z,60.00
2018-08-11T09:57:15.624Z,59.80
2018-08-11T09:59:44.713Z,59.30
2018-08-11T10:02:21.413Z,59.90
2018-08-11T10:04:49.884Z,61.00
2018-08-11T10:07:18.141Z,61.40
2018-08-11T10:09:46.745Z,63.50
2018-08-11T10:12:15.120Z,63.80
2018-08-11T10:14:44.535Z,64.20
2018-08-11T10:17:12.881Z,63.70
2018-08-11T10:19:41.080Z,63.90
2018-08-11T10:22:09.782Z,63.10
2018-08-11T10:24:38.657Z,62.00
2018-08-11T10:27:07.293Z,63.10
2018-08-11T10:29:35.663Z,64.10
2018-08-11T10:32:03.845Z,61.50
2018-08-11T10:34:32.219Z,60.60
2018-08-11T10:37:00.223Z,61.30
2018-08-11T10:39:28.630Z,59.70
2018-08-11T10:41:56.621Z,57.10
2018-08-11T10:44:25.708Z,57.30
2018-08-11T10:46:54.411Z,58.30
2018-08-11T10:49:23.147Z,57.40
2018-08-11T10:51:51.349Z,58.50
2018-08-11T10:54:19.453Z,54.90
2018-08-11T10:56:47.620Z,56.80
2018-08-11T10:59:15.948Z,57.00
2018-08-11T11:01:44.633Z,56.40
2018-08-11T11:04:13.009Z,55.80
2018-08-11T11:06:42.232Z,55.50
2018-08-11T11:09:11.259Z,53.30
2018-08-11T11:11:40.026Z,51.10
2018-08-11T11:14:09.427Z,53.70
2018-08-11T11:16:38.749Z,53.70
2018-08-11T11:19:08.574Z,53.60
2018-08-11T11:21:38.695Z,54.10
2018-08-11T11:24:06.759Z,53.50
2018-08-11T11:26:36.404Z,54.30
2018-08-11T11:29:05.179Z,53.30
2018-08-11T11:31:35.952Z,53.50
2018-08-11T11:34:04.736Z,54.70
2018-08-11T11:36:34.332Z,53.30
2018-08-11T11:39:03.009Z,53.30
2018-08-11T11:41:31.334Z,52.80
2018-08-11T11:43:59.938Z,52.20
2018-08-11T11:46:28.223Z,51.60
2018-08-11T11:48:56.085Z,52.90
2018-08-11T11:51:24.280Z,52.60
2018-08-11T11:53:53.221Z,52.40
2018-08-11T11:56:21.378Z,52.50
2018-08-11T11:58:49.423Z,53.40
2018-08-11T12:01:17.459Z,53.10
2018-08-11T12:03:45.865Z,52.80
2018-08-11T12:06:13.784Z,52.80
2018-08-11T12:08:41.717Z,51.40
2018-08-11T12:11:09.719Z,51.60
2018-08-11T12:13:38.311Z,51.30
2018-08-11T12:16:06.332Z,51.60
2018-08-11T12:18:34.470Z,51.50
2018-08-11T12:21:02.750Z,52.10
2018-08-11T12:23:30.965Z,52.50
2018-08-11T12:25:59.413Z,51.70
2018-08-11T12:28:28.854Z,52.10
2018-08-11T12:30:57.297Z,51.60
2018-08-11T12:33:25.384Z,51.80
2018-08-11T12:35:53.631Z,52.20
2018-08-11T12:38:22.159Z,51.60
2018-08-11T12:40:50.378Z,50.40
2018-08-11T12:43:19.229Z,51.00
2018-08-11T12:45:47.786Z,50.60
2018-08-11T12:48:15.787Z,50.50
2018-08-11T12:50:44.109Z,49.30
2018-08-11T12:53:12.350Z,50.30
2018-08-11T12:55:40.570Z,49.30
2018-08-11T12:58:08.484Z,49.70
2018-08-11T13:00:37.414Z,49.50
2018-08-11T13:03:05.161Z,49.90
2018-08-11T13:05:33.353Z,50.30
2018-08-11T13:08:02.141Z,49.80
2018-08-11T13:10:30.701Z,49.70
2018-08-11T13:13:00.063Z,49.30
2018-08-11T13:15:28.451Z,49.10
2018-08-11T13:17:56.199Z,50.80
2018-08-11T13:20:26.125Z,50.20
2018-08-11T13:22:54.887Z,49.30
2018-08-11T13:25:23.451Z,49.60
2018-08-11T13:27:51.396Z,49.60
2018-08-11T13:30:19.479Z,50.20
2018-08-11T13:32:47.866Z,51.60
2018-08-11T13:35:17.125Z,50.90
2018-08-11T13:37:45.340Z,51.40
2018-08-11T13:40:13.465Z,50.70
2018-08-11T13:42:43.025Z,51.50
2018-08-11T13:45:11.297Z,51.50
2018-08-11T13:47:39.033Z,50.30
2018-08-11T13:50:07.410Z,49.80
2018-08-11T13:52:35.621Z,49.70
2018-08-11T13:55:04.253Z,48.70
2018-08-11T13:57:32.835Z,49.90
2018-08-11T14:00:01.063Z,50.00
2018-08-11T14:02:29.923Z,49.90
2018-08-11T14:04:57.836Z,49.90
2018-08-11T14:07:26.100Z,49.30
2018-08-11T14:09:55.228Z,47.90
2018-08-11T14:12:23.400Z,48.80
2018-08-11T14:14:51.548Z,46.90
2018-08-11T14:17:19.870Z,47.80
2018-08-11T14:19:48.020Z,49.30
2018-08-11T14:22:16.439Z,48.70
2018-08-11T14:24:44.572Z,48.40
2018-08-11T14:27:12.772Z,48.00
2018-08-11T14:29:40.928Z,48.20
2018-08-11T14:32:10.238Z,48.00
2018-08-11T14:34:39.093Z,47.70
2018-08-11T14:37:06.868Z,48.30
2018-08-11T14:39:35.297Z,48.10
2018-08-11T14:42:03.397Z,48.20
2018-08-11T14:44:31.789Z,48.30
2018-08-11T14:47:00.016Z,47.50
2018-08-11T14:49:28.403Z,48.40
2018-08-11T14:51:56.146Z,48.10
2018-08-11T14:54:24.402Z,46.80
2018-08-11T14:56:52.597Z,48.00
2018-08-11T14:59:21.100Z,49.30
2018-08-11T15:01:49.114Z,48.70
2018-08-11T15:04:17.356Z,49.10
2018-08-11T15:06:45.636Z,47.80
2018-08-11T15:09:13.789Z,48.80
2018-08-11T15:11:41.839Z,48.80
2018-08-11T15:14:10.629Z,49.10
2018-08-11T15:16:38.667Z,48.20
2018-08-11T15:19:07.391Z,48.70
2018-08-11T15:21:36.599Z,49.10
2018-08-11T15:24:04.737Z,49.10
2018-08-11T15:26:32.859Z,48.90
2018-08-11T15:29:02.099Z,48.70
2018-08-11T15:31:30.267Z,47.20
2018-08-11T15:33:58.393Z,47.90
2018-08-11T15:36:26.672Z,47.80
2018-08-11T15:38:54.806Z,47.50
2018-08-11T15:41:22.814Z,47.50
2018-08-11T15:43:51.375Z,47.90
2018-08-11T15:46:19.742Z,46.50
2018-08-11T15:48:48.445Z,47.30
2018-08-11T15:51:16.302Z,47.00
2018-08-11T15:53:44.634Z,48.30
2018-08-11T15:56:12.856Z,47.50
2018-08-11T15:58:41.122Z,48.60
2018-08-11T16:01:09.114Z,48.80
2018-08-11T16:03:37.084Z,48.80
2018-08-11T16:06:05.444Z,48.00
2018-08-11T16:08:33.477Z,48.20
2018-08-11T16:11:01.853Z,48.60
2018-08-11T16:13:30.870Z,48.90
2018-08-11T16:15:58.765Z,49.40
2018-08-11T16:18:27.087Z,49.60
2018-08-11T16:20:55.024Z,47.80
2018-08-11T16:23:23.405Z,48.70
2018-08-11T16:25:51.546Z,49.00
2018-08-11T16:28:19.794Z,49.20
2018-08-11T16:30:47.814Z,48.50
2018-08-11T16:33:15.978Z,49.20
2018-08-11T16:35:44.340Z,49.20
2018-08-11T16:38:12.598Z,49.50
2018-08-11T16:40:40.697Z,49.40
2018-08-11T16:43:08.677Z,49.50
2018-08-11T16:45:36.915Z,49.60
2018-08-11T16:48:04.714Z,50.10
2018-08-11T16:50:33.083Z,51.10
2018-08-11T16:53:01.214Z,49.80
2018-08-11T16:55:29.224Z,50.20
2018-08-11T16:57:57.484Z,50.10
2018-08-11T17:00:25.387Z,51.00
2018-08-11T17:02:53.679Z,50.80
2018-08-11T17:05:21.647Z,49.70
2018-08-11T17:07:49.623Z,53.00
2018-08-11T17:10:17.594Z,50.60
2018-08-11T17:12:46.018Z,50.80
2018-08-11T17:15:17.668Z,49.90
2018-08-11T17:17:45.771Z,50.50
2018-08-11T17:20:13.633Z,51.00
2018-08-11T17:22:42.218Z,50.60
2018-08-11T17:25:10.327Z,50.50
2018-08-11T17:27:38.712Z,51.40
2018-08-11T17:30:07.195Z,50.10
2018-08-11T17:32:35.073Z,51.30
2018-08-11T17:35:03.512Z,53.70
2018-08-11T17:37:31.738Z,51.60
2018-08-11T17:39:59.844Z,51.00
2018-08-11T17:42:28.888Z,51.10
2018-08-11T17:44:57.070Z,51.80
2018-08-11T17:47:25.039Z,50.80
2018-08-11T17:49:53.348Z,51.20
2018-08-11T17:52:21.917Z,51.60
2018-08-11T17:54:50.251Z,50.50
2018-08-11T17:57:18.205Z,52.50
2018-08-11T17:59:46.304Z,52.30
2018-08-11T18:02:15.139Z,53.20
2018-08-11T18:04:43.427Z,51.90
2018-08-11T18:07:11.572Z,50.90
2018-08-11T18:09:39.889Z,51.60
2018-08-11T18:12:08.029Z,52.60
2018-08-11T18:14:37.392Z,53.20
2018-08-11T18:17:05.547Z,53.70
2018-08-11T18:19:33.857Z,54.70
2018-08-11T18:22:02.012Z,55.30
2018-08-11T18:24:30.406Z,57.00
2018-08-11T18:26:58.598Z,54.70
2018-08-11T18:29:26.665Z,56.30
2018-08-11T18:31:54.866Z,56.50
2018-08-11T18:34:22.723Z,56.70
2018-08-11T18:36:51.945Z,58.00
2018-08-11T18:39:20.715Z,58.10
2018-08-11T18:41:48.553Z,59.80
2018-08-11T18:44:16.645Z,59.40
2018-08-11T18:46:44.576Z,59.10
2018-08-11T18:49:12.806Z,59.80
2018-08-11T18:51:41.021Z,59.90
2018-08-11T18:54:09.100Z,60.90
2018-08-11T18:56:38.396Z,59.90
2018-08-11T18:59:07.226Z,62.00
2018-08-11T19:01:36.885Z,62.80
2018-08-11T19:04:07.528Z,63.20
2018-08-11T19:06:38.239Z,63.60
2018-08-11T19:09:11.109Z,64.40
2018-08-11T19:11:39.572Z,65.30
2018-08-11T19:14:08.925Z,65.60
2018-08-11T19:16:40.402Z,66.00
2018-08-11T19:19:11.390Z,66.60
2018-08-11T19:21:40.103Z,67.30
2018-08-11T19:24:08.544Z,67.30
2018-08-11T19:26:37.918Z,67.50
2018-08-11T19:29:08.515Z,68.00
2018-08-11T19:31:38.010Z,68.00
2018-08-11T19:34:06.454Z,68.30
2018-08-11T19:36:35.705Z,68.60
2018-08-11T19:39:06.961Z,69.00
2018-08-11T19:41:36.499Z,69.50
2018-08-11T19:44:05.009Z,69.40
2018-08-11T19:46:33.792Z,69.50
2018-08-11T19:49:02.501Z,69.80
2018-08-11T19:51:31.853Z,70.20
2018-08-11T19:54:01.817Z,70.20
2018-08-11T19:56:31.164Z,70.30
2018-08-11T19:59:00.783Z,70.00
2018-08-11T20:01:30.373Z,70.50
2018-08-11T20:03:59.364Z,71.10
2018-08-11T20:06:27.851Z,71.20
2018-08-11T20:08:56.089Z,71.20
2018-08-11T20:11:24.633Z,71.20
2018-08-11T20:13:53.944Z,71.40
2018-08-11T20:16:22.227Z,71.60
2018-08-11T20:18:51.206Z,72.20
2018-08-11T20:21:21.931Z,73.50
2018-08-11T20:23:51.200Z,73.40
2018-08-11T20:26:22.838Z,73.40
2018-08-11T20:28:51.832Z,73.70
2018-08-11T20:31:21.213Z,73.70
2018-08-11T20:33:52.021Z,74.50
2018-08-11T20:36:21.068Z,74.40
2018-08-11T20:38:51.636Z,74.80
2018-08-11T20:41:21.324Z,74.90
2018-08-11T20:43:50.282Z,75.50
2018-08-11T20:46:19.984Z,75.60
2018-08-11T20:48:48.314Z,75.90
2018-08-11T20:51:16.851Z,75.90
2018-08-11T20:53:45.403Z,76.60
2018-08-11T20:56:13.537Z,77.10
2018-08-11T20:58:42.515Z,77.90
2018-08-11T21:01:10.732Z,77.90
2018-08-11T21:03:38.939Z,77.80
2018-08-11T21:06:07.586Z,78.10
2018-08-11T21:08:38.659Z,78.40
2018-08-11T21:11:07.388Z,78.60
2018-08-11T21:13:36.643Z,79.20
2018-08-11T21:16:05.425Z,79.00
2018-08-11T21:18:33.373Z,79.40
2018-08-11T21:21:01.493Z,79.80
2018-08-11T21:23:29.687Z,79.70
2018-08-11T21:25:58.192Z,80.00
2018-08-11T21:28:26.206Z,81.00
2018-08-11T21:30:54.446Z,81.00
2018-08-11T21:33:22.987Z,82.10
2018-08-11T21:35:51.246Z,82.20
2018-08-11T21:38:19.570Z,82.50
2018-08-11T21:40:47.618Z,82.60
2018-08-11T21:43:15.603Z,83.20
2018-08-11T21:45:43.707Z,83.90
2018-08-11T21:48:11.596Z,83.90
2018-08-11T21:50:39.460Z,84.00
2018-08-11T21:53:07.984Z,84.70
2018-08-11T21:55:35.921Z,84.80
2018-08-11T21:58:04.277Z,85.10
2018-08-11T22:00:33.931Z,86.10
2018-08-11T22:03:02.158Z,86.70
2018-08-11T22:05:30.238Z,87.10
2018-08-11T22:07:59.858Z,88.70
2018-08-11T22:10:29.330Z,89.00
2018-08-11T22:12:58.121Z,89.70
2018-08-11T22:15:26.601Z,90.00
2018-08-11T22:17:54.587Z,90.10
2018-08-11T22:20:22.574Z,90.00
2018-08-11T22:22:50.658Z,90.00
2018-08-11T22:25:19.047Z,90.10
2018-08-11T22:27:47.231Z,90.50
2018-08-11T22:30:15.159Z,91.00
2018-08-11T22:32:43.267Z,90.70
2018-08-11T22:35:12.123Z,90.80
2018-08-11T22:37:40.459Z,90.90
2018-08-11T22:40:08.489Z,91.10
2018-08-11T22:42:38.102Z,91.50
2018-08-11T22:45:08.824Z,91.30
2018-08-11T22:47:37.926Z,92.10
2018-08-11T22:50:08.060Z,91.80
2018-08-11T22:52:36.600Z,91.80
2018-08-11T22:55:05.366Z,92.00
2018-08-11T22:57:33.350Z,92.10
2018-08-11T23:00:01.662Z,92.50
2018-08-11T23:02:30.880Z,92.80
2018-08-11T23:04:58.845Z,93.10
2018-08-11T23:07:26.962Z,93.10
2018-08-11T23:09:55.162Z,93.10
2018-08-11T23:12:23.179Z,93.20
2018-08-11T23:14:51.403Z,93.30
2018-08-11T23:17:19.157Z,93.50
2018-08-11T23:19:47.315Z,93.70
2018-08-11T23:22:15.556Z,93.70
2018-08-11T23:24:43.553Z,94.00
2018-08-11T23:27:11.289Z,94.20
2018-08-11T23:29:39.349Z,94.20
2018-08-11T23:32:07.232Z,94.40
2018-08-11T23:34:35.535Z,94.40
2018-08-11T23:37:03.853Z,94.50
2018-08-11T23:39:32.299Z,94.80
2018-08-11T23:42:00.384Z,94.80
2018-08-11T23:44:28.686Z,94.90
2018-08-11T23:46:57.157Z,95.00
2018-08-11T23:49:25.341Z,95.30
2018-08-11T23:51:53.423Z,95.30
2018-08-11T23:54:22.480Z,95.20
2018-08-11T23:56:50.504Z,95.10
2018-08-11T23:59:18.649Z,95.20
